sensor_id;sensor_type;location;lat;lon;timestamp;temperature;humidity
38582;DHT22;24349;53.720;10.014;2023-09-19T00:00:01;17.00;99.90
38582;DHT22;24349;53.720;10.014;2023-09-19T00:02:27;16.90;99.90
38582;DHT22;24349;53.720;10.014;2023-09-19T00:04:52;16.90;99.90
38582;DHT22;24349;53.720;10.014;2023-09-19T00:07:19;16.90;99.90
38582;DHT22;24349;53.720;10.014;2023-09-19T00:09:44;16.90;99.90
38582;DHT22;24349;53.720;10.014;2023-09-19T00:12:10;16.90;99.90
38582;DHT22;24349;53.720;10.014;2023-09-19T00:14:35;16.80;99.90
38582;DHT22;24349;53.720;10.014;2023-09-19T00:17:02;16.80;99.90
38582;DHT22;24349;53.720;10.014;2023-09-19T00:19:34;16.90;99.90
38582;DHT22;24349;53.720;10.014;2023-09-19T00:22:01;16.80;99.90
38582;DHT22;24349;53.720;10.014;2023-09-19T00:24:26;16.80;99.90
38582;DHT22;24349;53.720;10.014;2023-09-19T00:26:53;16.80;99.90
38582;DHT22;24349;53.720;10.014;2023-09-19T00:29:21;16.80;99.90
38582;DHT22;24349;53.720;10.014;2023-09-19T00:31:46;16.90;99.90
38582;DHT22;24349;53.720;10.014;2023-09-19T00:34:12;16.80;99.90
38582;DHT22;24349;53.720;10.014;2023-09-19T00:36:38;16.80;99.90
38582;DHT22;24349;53.720;10.014;2023-09-19T00:39:08;16.80;99.90
38582;DHT22;24349;53.720;10.014;2023-09-19T00:41:34;16.80;99.90
38582;DHT22;24349;53.720;10.014;2023-09-19T00:44:04;16.80;99.90
38582;DHT22;24349;53.720;10.014;2023-09-19T00:46:31;16.80;99.90
38582;DHT22;24349;53.720;10.014;2023-09-19T00:48:58;16.80;99.90
38582;DHT22;24349;53.720;10.014;2023-09-19T00:51:24;16.80;99.90
38582;DHT22;24349;53.720;10.014;2023-09-19T00:53:51;16.80;99.90
38582;DHT22;24349;53.720;10.014;2023-09-19T00:56:18;16.70;99.90
38582;DHT22;24349;53.720;10.014;2023-09-19T00:58:45;16.70;99.90
38582;DHT22;24349;53.720;10.014;2023-09-19T01:01:12;16.60;99.90
38582;DHT22;24349;53.720;10.014;2023-09-19T01:03:40;16.70;99.90
38582;DHT22;24349;53.720;10.014;2023-09-19T01:06:07;16.70;99.90
38582;DHT22;24349;53.720;10.014;2023-09-19T01:08:34;16.70;99.90
38582;DHT22;24349;53.720;10.014;2023-09-19T01:14:06;16.70;99.90
38582;DHT22;24349;53.720;10.014;2023-09-19T01:16:56;16.70;99.90
38582;DHT22;24349;53.720;10.014;2023-09-19T01:24:48;16.60;99.90
38582;DHT22;24349;53.720;10.014;2023-09-19T01:29:51;16.60;99.90
38582;DHT22;24349;53.720;10.014;2023-09-19T01:32:21;16.60;99.90
38582;DHT22;24349;53.720;10.014;2023-09-19T01:34:52;16.50;99.90
38582;DHT22;24349;53.720;10.014;2023-09-19T01:37:20;16.40;99.90
38582;DHT22;24349;53.720;10.014;2023-09-19T01:40:03;16.40;99.90
38582;DHT22;24349;53.720;10.014;2023-09-19T01:42:41;16.40;99.90
38582;DHT22;24349;53.720;10.014;2023-09-19T01:48:12;16.40;99.90
38582;DHT22;24349;53.720;10.014;2023-09-19T01:50:46;16.40;99.90
38582;DHT22;24349;53.720;10.014;2023-09-19T01:53:27;16.40;99.90
38582;DHT22;24349;53.720;10.014;2023-09-19T01:55:54;16.40;99.90
38582;DHT22;24349;53.720;10.014;2023-09-19T02:00:58;16.40;99.90
38582;DHT22;24349;53.720;10.014;2023-09-19T02:03:26;16.30;99.90
38582;DHT22;24349;53.720;10.014;2023-09-19T02:05:54;16.30;99.90
38582;DHT22;24349;53.720;10.014;2023-09-19T02:08:21;16.30;99.90
38582;DHT22;24349;53.720;10.014;2023-09-19T02:10:50;16.30;99.90
38582;DHT22;24349;53.720;10.014;2023-09-19T02:13:20;16.30;99.90
38582;DHT22;24349;53.720;10.014;2023-09-19T02:15:47;16.20;99.90
38582;DHT22;24349;53.720;10.014;2023-09-19T02:18:13;16.20;99.90
38582;DHT22;24349;53.720;10.014;2023-09-19T02:20:40;16.20;99.90
38582;DHT22;24349;53.720;10.014;2023-09-19T02:23:06;16.20;99.90
38582;DHT22;24349;53.720;10.014;2023-09-19T02:25:31;16.20;99.90
38582;DHT22;24349;53.720;10.014;2023-09-19T02:27:57;16.20;99.90
38582;DHT22;24349;53.720;10.014;2023-09-19T02:30:24;16.20;99.90
38582;DHT22;24349;53.720;10.014;2023-09-19T02:32:51;16.10;99.90
38582;DHT22;24349;53.720;10.014;2023-09-19T02:35:17;16.00;99.90
38582;DHT22;24349;53.720;10.014;2023-09-19T02:37:45;16.00;99.90
38582;DHT22;24349;53.720;10.014;2023-09-19T02:40:11;16.00;99.90
38582;DHT22;24349;53.720;10.014;2023-09-19T02:42:48;16.00;99.90
38582;DHT22;24349;53.720;10.014;2023-09-19T02:45:18;16.00;99.90
38582;DHT22;24349;53.720;10.014;2023-09-19T02:47:45;16.00;99.90
38582;DHT22;24349;53.720;10.014;2023-09-19T02:50:11;16.00;99.90
38582;DHT22;24349;53.720;10.014;2023-09-19T02:52:38;15.90;99.90
38582;DHT22;24349;53.720;10.014;2023-09-19T02:55:03;15.90;99.90
38582;DHT22;24349;53.720;10.014;2023-09-19T02:57:31;15.90;99.90
38582;DHT22;24349;53.720;10.014;2023-09-19T02:59:58;15.90;99.90
38582;DHT22;24349;53.720;10.014;2023-09-19T03:02:25;15.90;99.90
38582;DHT22;24349;53.720;10.014;2023-09-19T03:04:53;15.90;99.90
38582;DHT22;24349;53.720;10.014;2023-09-19T03:07:19;15.90;99.90
38582;DHT22;24349;53.720;10.014;2023-09-19T03:09:44;15.90;99.90
38582;DHT22;24349;53.720;10.014;2023-09-19T03:12:11;15.90;99.90
38582;DHT22;24349;53.720;10.014;2023-09-19T03:14:36;16.00;99.90
38582;DHT22;24349;53.720;10.014;2023-09-19T03:17:02;16.00;99.90
38582;DHT22;24349;53.720;10.014;2023-09-19T03:19:31;16.00;99.90
38582;DHT22;24349;53.720;10.014;2023-09-19T03:21:59;16.00;99.90
38582;DHT22;24349;53.720;10.014;2023-09-19T03:24:24;16.00;99.90
38582;DHT22;24349;53.720;10.014;2023-09-19T03:26:50;16.00;99.90
38582;DHT22;24349;53.720;10.014;2023-09-19T03:29:16;16.00;99.90
38582;DHT22;24349;53.720;10.014;2023-09-19T03:31:42;16.00;99.90
38582;DHT22;24349;53.720;10.014;2023-09-19T03:34:08;16.00;99.90
38582;DHT22;24349;53.720;10.014;2023-09-19T03:36:34;16.00;99.90
38582;DHT22;24349;53.720;10.014;2023-09-19T03:39:01;16.00;99.90
38582;DHT22;24349;53.720;10.014;2023-09-19T03:41:27;15.90;99.90
38582;DHT22;24349;53.720;10.014;2023-09-19T03:43:52;15.90;99.90
38582;DHT22;24349;53.720;10.014;2023-09-19T03:46:18;15.90;99.90
38582;DHT22;24349;53.720;10.014;2023-09-19T03:48:44;15.80;99.90
38582;DHT22;24349;53.720;10.014;2023-09-19T03:51:09;15.80;99.90
38582;DHT22;24349;53.720;10.014;2023-09-19T03:53:36;15.80;99.90
38582;DHT22;24349;53.720;10.014;2023-09-19T03:56:01;15.80;99.90
38582;DHT22;24349;53.720;10.014;2023-09-19T03:58:28;15.70;99.90
38582;DHT22;24349;53.720;10.014;2023-09-19T04:00:57;15.70;99.90
38582;DHT22;24349;53.720;10.014;2023-09-19T04:03:24;15.70;99.90
38582;DHT22;24349;53.720;10.014;2023-09-19T04:05:54;15.60;99.90
38582;DHT22;24349;53.720;10.014;2023-09-19T04:08:19;15.60;99.90
38582;DHT22;24349;53.720;10.014;2023-09-19T04:10:45;15.60;99.90
38582;DHT22;24349;53.720;10.014;2023-09-19T04:13:10;15.60;99.90
38582;DHT22;24349;53.720;10.014;2023-09-19T04:15:36;15.60;99.90
38582;DHT22;24349;53.720;10.014;2023-09-19T04:18:03;15.60;99.90
38582;DHT22;24349;53.720;10.014;2023-09-19T04:20:29;15.60;99.90
38582;DHT22;24349;53.720;10.014;2023-09-19T04:22:54;15.60;99.90
38582;DHT22;24349;53.720;10.014;2023-09-19T04:25:20;15.60;99.90
38582;DHT22;24349;53.720;10.014;2023-09-19T04:27:46;15.60;99.90
38582;DHT22;24349;53.720;10.014;2023-09-19T04:30:12;15.50;99.90
38582;DHT22;24349;53.720;10.014;2023-09-19T04:32:41;15.50;99.90
38582;DHT22;24349;53.720;10.014;2023-09-19T04:35:08;15.40;99.90
38582;DHT22;24349;53.720;10.014;2023-09-19T04:37:39;15.40;99.90
38582;DHT22;24349;53.720;10.014;2023-09-19T04:40:09;15.40;99.90
38582;DHT22;24349;53.720;10.014;2023-09-19T04:42:38;15.30;99.90
38582;DHT22;24349;53.720;10.014;2023-09-19T04:45:04;15.30;99.90
38582;DHT22;24349;53.720;10.014;2023-09-19T04:47:30;15.20;99.90
38582;DHT22;24349;53.720;10.014;2023-09-19T04:49:56;15.20;99.90
38582;DHT22;24349;53.720;10.014;2023-09-19T04:52:24;15.10;99.90
38582;DHT22;24349;53.720;10.014;2023-09-19T04:54:49;15.10;99.90
38582;DHT22;24349;53.720;10.014;2023-09-19T04:57:15;15.10;99.90
38582;DHT22;24349;53.720;10.014;2023-09-19T04:59:41;15.00;99.90
38582;DHT22;24349;53.720;10.014;2023-09-19T05:02:07;15.00;99.90
38582;DHT22;24349;53.720;10.014;2023-09-19T05:04:33;15.00;99.90
38582;DHT22;24349;53.720;10.014;2023-09-19T05:06:59;14.90;99.90
38582;DHT22;24349;53.720;10.014;2023-09-19T05:09:26;14.80;99.90
38582;DHT22;24349;53.720;10.014;2023-09-19T05:11:52;14.90;99.90
38582;DHT22;24349;53.720;10.014;2023-09-19T05:14:18;14.80;99.90
38582;DHT22;24349;53.720;10.014;2023-09-19T05:16:45;14.80;99.90
38582;DHT22;24349;53.720;10.014;2023-09-19T05:19:10;14.80;99.90
38582;DHT22;24349;53.720;10.014;2023-09-19T05:21:37;14.80;99.90
38582;DHT22;24349;53.720;10.014;2023-09-19T05:24:05;14.80;99.90
38582;DHT22;24349;53.720;10.014;2023-09-19T05:26:32;14.70;99.90
38582;DHT22;24349;53.720;10.014;2023-09-19T05:28:57;14.60;99.90
38582;DHT22;24349;53.720;10.014;2023-09-19T05:31:23;14.60;99.90
38582;DHT22;24349;53.720;10.014;2023-09-19T05:33:50;14.60;99.90
38582;DHT22;24349;53.720;10.014;2023-09-19T05:36:15;14.60;99.90
38582;DHT22;24349;53.720;10.014;2023-09-19T05:38:42;14.60;99.90
38582;DHT22;24349;53.720;10.014;2023-09-19T05:41:08;14.70;99.90
38582;DHT22;24349;53.720;10.014;2023-09-19T05:43:35;14.70;99.90
38582;DHT22;24349;53.720;10.014;2023-09-19T05:46:03;14.70;99.90
38582;DHT22;24349;53.720;10.014;2023-09-19T05:48:28;14.70;99.90
38582;DHT22;24349;53.720;10.014;2023-09-19T05:50:54;14.80;99.90
38582;DHT22;24349;53.720;10.014;2023-09-19T05:53:20;14.90;99.90
38582;DHT22;24349;53.720;10.014;2023-09-19T05:55:45;15.00;99.90
38582;DHT22;24349;53.720;10.014;2023-09-19T05:58:11;15.00;99.90
38582;DHT22;24349;53.720;10.014;2023-09-19T06:00:40;15.10;99.90
38582;DHT22;24349;53.720;10.014;2023-09-19T06:03:08;15.20;99.90
38582;DHT22;24349;53.720;10.014;2023-09-19T06:05:33;15.40;99.90
38582;DHT22;24349;53.720;10.014;2023-09-19T06:07:59;15.50;99.90
38582;DHT22;24349;53.720;10.014;2023-09-19T06:10:25;15.70;99.90
38582;DHT22;24349;53.720;10.014;2023-09-19T06:12:52;15.90;99.90
38582;DHT22;24349;53.720;10.014;2023-09-19T06:15:18;16.10;99.90
38582;DHT22;24349;53.720;10.014;2023-09-19T06:17:54;16.20;99.90
38582;DHT22;24349;53.720;10.014;2023-09-19T06:20:23;16.30;99.90
38582;DHT22;24349;53.720;10.014;2023-09-19T06:22:49;16.20;99.90
38582;DHT22;24349;53.720;10.014;2023-09-19T06:25:16;16.00;99.90
38582;DHT22;24349;53.720;10.014;2023-09-19T06:27:50;15.90;99.90
38582;DHT22;24349;53.720;10.014;2023-09-19T06:30:20;15.80;99.90
38582;DHT22;24349;53.720;10.014;2023-09-19T06:32:47;15.90;99.90
38582;DHT22;24349;53.720;10.014;2023-09-19T06:35:15;15.80;99.90
38582;DHT22;24349;53.720;10.014;2023-09-19T06:37:42;15.70;99.90
38582;DHT22;24349;53.720;10.014;2023-09-19T06:40:12;15.60;99.90
38582;DHT22;24349;53.720;10.014;2023-09-19T06:42:44;15.60;99.90
38582;DHT22;24349;53.720;10.014;2023-09-19T06:45:13;15.70;99.90
38582;DHT22;24349;53.720;10.014;2023-09-19T06:47:44;15.70;99.90
38582;DHT22;24349;53.720;10.014;2023-09-19T06:50:10;15.60;99.90
38582;DHT22;24349;53.720;10.014;2023-09-19T06:52:40;15.60;99.90
38582;DHT22;24349;53.720;10.014;2023-09-19T06:55:06;15.60;99.90
38582;DHT22;24349;53.720;10.014;2023-09-19T06:57:32;15.60;99.90
38582;DHT22;24349;53.720;10.014;2023-09-19T06:59:57;15.70;99.90
38582;DHT22;24349;53.720;10.014;2023-09-19T07:02:23;15.70;99.90
38582;DHT22;24349;53.720;10.014;2023-09-19T07:04:49;15.70;99.90
38582;DHT22;24349;53.720;10.014;2023-09-19T07:07:15;15.60;99.90
38582;DHT22;24349;53.720;10.014;2023-09-19T07:09:41;15.70;99.90
38582;DHT22;24349;53.720;10.014;2023-09-19T07:12:08;15.70;99.90
38582;DHT22;24349;53.720;10.014;2023-09-19T07:14:33;15.60;99.90
38582;DHT22;24349;53.720;10.014;2023-09-19T07:16:59;15.70;99.90
38582;DHT22;24349;53.720;10.014;2023-09-19T07:19:29;16.00;99.90
38582;DHT22;24349;53.720;10.014;2023-09-19T07:21:55;16.10;99.90
38582;DHT22;24349;53.720;10.014;2023-09-19T07:24:21;16.10;99.90
38582;DHT22;24349;53.720;10.014;2023-09-19T07:26:49;16.10;99.90
38582;DHT22;24349;53.720;10.014;2023-09-19T07:29:15;16.20;99.90
38582;DHT22;24349;53.720;10.014;2023-09-19T07:31:41;16.20;99.90
38582;DHT22;24349;53.720;10.014;2023-09-19T07:34:07;16.30;99.90
38582;DHT22;24349;53.720;10.014;2023-09-19T07:36:34;16.30;99.90
38582;DHT22;24349;53.720;10.014;2023-09-19T07:39:02;16.20;99.90
38582;DHT22;24349;53.720;10.014;2023-09-19T07:41:32;16.10;99.90
38582;DHT22;24349;53.720;10.014;2023-09-19T07:43:58;16.00;99.90
38582;DHT22;24349;53.720;10.014;2023-09-19T07:46:23;16.10;99.90
38582;DHT22;24349;53.720;10.014;2023-09-19T07:48:51;16.00;99.90
38582;DHT22;24349;53.720;10.014;2023-09-19T07:51:18;15.90;99.90
38582;DHT22;24349;53.720;10.014;2023-09-19T07:53:44;16.00;99.90
38582;DHT22;24349;53.720;10.014;2023-09-19T07:56:10;16.00;99.90
38582;DHT22;24349;53.720;10.014;2023-09-19T07:58:39;15.90;99.90
38582;DHT22;24349;53.720;10.014;2023-09-19T08:01:07;15.90;99.90
38582;DHT22;24349;53.720;10.014;2023-09-19T08:03:34;15.80;99.90
38582;DHT22;24349;53.720;10.014;2023-09-19T08:06:00;15.90;99.90
38582;DHT22;24349;53.720;10.014;2023-09-19T08:08:26;15.90;99.90
38582;DHT22;24349;53.720;10.014;2023-09-19T08:10:56;15.90;99.90
38582;DHT22;24349;53.720;10.014;2023-09-19T08:13:23;15.80;99.90
38582;DHT22;24349;53.720;10.014;2023-09-19T08:15:49;16.00;99.90
38582;DHT22;24349;53.720;10.014;2023-09-19T08:18:15;16.00;99.90
38582;DHT22;24349;53.720;10.014;2023-09-19T08:20:41;16.00;99.90
38582;DHT22;24349;53.720;10.014;2023-09-19T08:23:11;16.10;99.90
38582;DHT22;24349;53.720;10.014;2023-09-19T08:25:37;16.10;99.90
38582;DHT22;24349;53.720;10.014;2023-09-19T08:28:04;16.10;99.90
38582;DHT22;24349;53.720;10.014;2023-09-19T08:30:33;16.20;99.90
38582;DHT22;24349;53.720;10.014;2023-09-19T08:33:00;16.20;99.90
38582;DHT22;24349;53.720;10.014;2023-09-19T08:35:27;16.30;99.90
38582;DHT22;24349;53.720;10.014;2023-09-19T08:37:53;16.20;99.90
38582;DHT22;24349;53.720;10.014;2023-09-19T08:40:21;16.20;99.90
38582;DHT22;24349;53.720;10.014;2023-09-19T08:42:51;16.10;99.90
38582;DHT22;24349;53.720;10.014;2023-09-19T08:45:19;16.20;99.90
38582;DHT22;24349;53.720;10.014;2023-09-19T08:50:29;16.10;99.90
38582;DHT22;24349;53.720;10.014;2023-09-19T08:52:59;16.10;99.90
38582;DHT22;24349;53.720;10.014;2023-09-19T08:55:29;16.10;99.90
38582;DHT22;24349;53.720;10.014;2023-09-19T08:58:03;16.10;99.90
38582;DHT22;24349;53.720;10.014;2023-09-19T09:00:33;16.10;99.90
38582;DHT22;24349;53.720;10.014;2023-09-19T09:03:01;16.10;99.90
38582;DHT22;24349;53.720;10.014;2023-09-19T09:05:28;16.20;99.90
38582;DHT22;24349;53.720;10.014;2023-09-19T09:07:55;16.20;99.90
38582;DHT22;24349;53.720;10.014;2023-09-19T09:10:22;16.30;99.90
38582;DHT22;24349;53.720;10.014;2023-09-19T09:12:52;16.30;99.90
38582;DHT22;24349;53.720;10.014;2023-09-19T09:15:22;16.40;99.90
38582;DHT22;24349;53.720;10.014;2023-09-19T09:17:50;16.40;99.90
38582;DHT22;24349;53.720;10.014;2023-09-19T09:20:17;16.40;99.90
38582;DHT22;24349;53.720;10.014;2023-09-19T09:22:51;16.50;99.90
38582;DHT22;24349;53.720;10.014;2023-09-19T09:25:17;16.60;99.90
38582;DHT22;24349;53.720;10.014;2023-09-19T09:27:43;16.60;99.90
38582;DHT22;24349;53.720;10.014;2023-09-19T09:30:34;16.60;99.90
38582;DHT22;24349;53.720;10.014;2023-09-19T09:33:11;16.80;99.90
38582;DHT22;24349;53.720;10.014;2023-09-19T09:35:54;16.90;99.90
38582;DHT22;24349;53.720;10.014;2023-09-19T09:38:25;17.10;99.90
38582;DHT22;24349;53.720;10.014;2023-09-19T09:40:57;17.20;99.90
38582;DHT22;24349;53.720;10.014;2023-09-19T09:43:37;17.50;99.90
38582;DHT22;24349;53.720;10.014;2023-09-19T09:46:12;17.70;99.90
38582;DHT22;24349;53.720;10.014;2023-09-19T09:49:06;17.80;99.90
38582;DHT22;24349;53.720;10.014;2023-09-19T09:55:02;18.20;99.90
38582;DHT22;24349;53.720;10.014;2023-09-19T09:57:33;18.40;99.90
38582;DHT22;24349;53.720;10.014;2023-09-19T10:00:00;18.50;99.90
38582;DHT22;24349;53.720;10.014;2023-09-19T10:02:42;18.50;99.90
38582;DHT22;24349;53.720;10.014;2023-09-19T10:07:48;19.10;99.90
38582;DHT22;24349;53.720;10.014;2023-09-19T10:10:38;19.00;99.90
38582;DHT22;24349;53.720;10.014;2023-09-19T10:13:19;18.80;99.90
38582;DHT22;24349;53.720;10.014;2023-09-19T10:15:49;18.80;99.90
38582;DHT22;24349;53.720;10.014;2023-09-19T10:18:26;18.70;99.90
38582;DHT22;24349;53.720;10.014;2023-09-19T10:20:53;18.70;99.90
38582;DHT22;24349;53.720;10.014;2023-09-19T10:23:21;18.90;99.90
38582;DHT22;24349;53.720;10.014;2023-09-19T10:25:52;19.00;99.90
38582;DHT22;24349;53.720;10.014;2023-09-19T10:28:18;19.10;99.90
38582;DHT22;24349;53.720;10.014;2023-09-19T10:30:51;19.10;99.90
38582;DHT22;24349;53.720;10.014;2023-09-19T10:33:19;19.20;99.90
38582;DHT22;24349;53.720;10.014;2023-09-19T10:35:49;19.20;99.90
38582;DHT22;24349;53.720;10.014;2023-09-19T10:38:19;19.30;99.90
38582;DHT22;24349;53.720;10.014;2023-09-19T10:40:51;19.30;99.90
38582;DHT22;24349;53.720;10.014;2023-09-19T10:43:19;19.40;99.90
38582;DHT22;24349;53.720;10.014;2023-09-19T10:45:47;19.40;99.90
38582;DHT22;24349;53.720;10.014;2023-09-19T10:48:19;19.00;99.90
38582;DHT22;24349;53.720;10.014;2023-09-19T10:53:40;18.60;99.90
38582;DHT22;24349;53.720;10.014;2023-09-19T10:56:08;18.50;99.90
38582;DHT22;24349;53.720;10.014;2023-09-19T10:58:43;18.50;99.90
38582;DHT22;24349;53.720;10.014;2023-09-19T11:01:10;18.50;99.90
38582;DHT22;24349;53.720;10.014;2023-09-19T11:03:41;18.60;99.90
38582;DHT22;24349;53.720;10.014;2023-09-19T11:06:16;19.10;99.90
38582;DHT22;24349;53.720;10.014;2023-09-19T11:09:01;19.30;99.90
38582;DHT22;24349;53.720;10.014;2023-09-19T11:14:29;19.50;99.90
38582;DHT22;24349;53.720;10.014;2023-09-19T11:30:50;20.20;99.90
38582;DHT22;24349;53.720;10.014;2023-09-19T11:33:30;19.80;99.90
38582;DHT22;24349;53.720;10.014;2023-09-19T11:39:01;20.40;99.90
38582;DHT22;24349;53.720;10.014;2023-09-19T11:41:37;20.00;99.90
38582;DHT22;24349;53.720;10.014;2023-09-19T11:46:55;19.80;99.90
38582;DHT22;24349;53.720;10.014;2023-09-19T11:49:31;20.00;99.90
38582;DHT22;24349;53.720;10.014;2023-09-19T11:52:00;20.30;99.90
38582;DHT22;24349;53.720;10.014;2023-09-19T11:54:31;20.70;99.90
38582;DHT22;24349;53.720;10.014;2023-09-19T11:56:59;20.80;99.90
38582;DHT22;24349;53.720;10.014;2023-09-19T11:59:27;20.60;99.90
38582;DHT22;24349;53.720;10.014;2023-09-19T12:01:55;20.70;99.90
38582;DHT22;24349;53.720;10.014;2023-09-19T12:04:38;20.70;99.90
38582;DHT22;24349;53.720;10.014;2023-09-19T12:07:11;20.20;99.90
38582;DHT22;24349;53.720;10.014;2023-09-19T12:12:26;19.50;99.90
38582;DHT22;24349;53.720;10.014;2023-09-19T12:15:01;19.30;99.90
38582;DHT22;24349;53.720;10.014;2023-09-19T12:17:55;19.40;99.90
38582;DHT22;24349;53.720;10.014;2023-09-19T12:20:21;20.10;99.90
38582;DHT22;24349;53.720;10.014;2023-09-19T12:22:47;19.90;99.90
38582;DHT22;24349;53.720;10.014;2023-09-19T12:25:15;19.50;99.90
38582;DHT22;24349;53.720;10.014;2023-09-19T12:27:47;20.00;99.90
38582;DHT22;24349;53.720;10.014;2023-09-19T12:30:16;20.30;99.90
38582;DHT22;24349;53.720;10.014;2023-09-19T12:32:46;20.50;99.90
38582;DHT22;24349;53.720;10.014;2023-09-19T12:35:33;20.50;99.90
38582;DHT22;24349;53.720;10.014;2023-09-19T12:38:01;20.90;99.90
38582;DHT22;24349;53.720;10.014;2023-09-19T12:40:29;20.40;99.90
38582;DHT22;24349;53.720;10.014;2023-09-19T12:42:59;20.50;99.90
38582;DHT22;24349;53.720;10.014;2023-09-19T12:45:26;20.30;99.90
38582;DHT22;24349;53.720;10.014;2023-09-19T12:48:20;20.30;99.90
38582;DHT22;24349;53.720;10.014;2023-09-19T12:51:04;20.80;99.90
38582;DHT22;24349;53.720;10.014;2023-09-19T12:53:42;20.90;99.90
38582;DHT22;24349;53.720;10.014;2023-09-19T12:56:10;21.10;99.90
38582;DHT22;24349;53.720;10.014;2023-09-19T13:01:19;20.30;99.90
38582;DHT22;24349;53.720;10.014;2023-09-19T13:03:45;20.20;99.90
38582;DHT22;24349;53.720;10.014;2023-09-19T13:06:11;20.10;99.90
38582;DHT22;24349;53.720;10.014;2023-09-19T13:08:39;20.00;99.90
38582;DHT22;24349;53.720;10.014;2023-09-19T13:13:40;20.20;99.90
38582;DHT22;24349;53.720;10.014;2023-09-19T13:16:07;20.00;99.90
38582;DHT22;24349;53.720;10.014;2023-09-19T13:18:42;20.20;99.90
38582;DHT22;24349;53.720;10.014;2023-09-19T13:21:10;20.20;99.90
38582;DHT22;24349;53.720;10.014;2023-09-19T13:23:38;20.30;99.90
38582;DHT22;24349;53.720;10.014;2023-09-19T13:26:04;20.20;99.90
38582;DHT22;24349;53.720;10.014;2023-09-19T13:28:31;20.50;99.90
38582;DHT22;24349;53.720;10.014;2023-09-19T13:30:58;20.60;99.90
38582;DHT22;24349;53.720;10.014;2023-09-19T13:33:24;20.30;99.90
38582;DHT22;24349;53.720;10.014;2023-09-19T13:35:51;20.10;99.90
38582;DHT22;24349;53.720;10.014;2023-09-19T13:38:18;20.00;99.90
38582;DHT22;24349;53.720;10.014;2023-09-19T13:40:47;19.90;99.90
38582;DHT22;24349;53.720;10.014;2023-09-19T13:43:13;19.70;99.90
38582;DHT22;24349;53.720;10.014;2023-09-19T13:45:40;19.90;99.90
38582;DHT22;24349;53.720;10.014;2023-09-19T13:48:07;19.90;99.90
38582;DHT22;24349;53.720;10.014;2023-09-19T13:50:34;20.10;99.90
38582;DHT22;24349;53.720;10.014;2023-09-19T13:53:02;20.10;99.90
38582;DHT22;24349;53.720;10.014;2023-09-19T13:55:28;19.90;99.90
38582;DHT22;24349;53.720;10.014;2023-09-19T13:57:54;20.00;99.90
38582;DHT22;24349;53.720;10.014;2023-09-19T14:00:24;20.10;99.90
38582;DHT22;24349;53.720;10.014;2023-09-19T14:02:49;20.00;99.90
38582;DHT22;24349;53.720;10.014;2023-09-19T14:05:16;19.80;99.90
38582;DHT22;24349;53.720;10.014;2023-09-19T14:07:45;19.60;99.90
38582;DHT22;24349;53.720;10.014;2023-09-19T14:10:12;19.70;99.90
38582;DHT22;24349;53.720;10.014;2023-09-19T14:12:38;20.00;99.90
38582;DHT22;24349;53.720;10.014;2023-09-19T14:15:09;20.10;99.90
38582;DHT22;24349;53.720;10.014;2023-09-19T14:17:37;20.00;99.90
38582;DHT22;24349;53.720;10.014;2023-09-19T14:20:03;19.80;99.90
38582;DHT22;24349;53.720;10.014;2023-09-19T14:22:31;20.20;99.90
38582;DHT22;24349;53.720;10.014;2023-09-19T14:24:59;20.20;99.90
38582;DHT22;24349;53.720;10.014;2023-09-19T14:27:25;20.30;99.90
38582;DHT22;24349;53.720;10.014;2023-09-19T14:29:51;20.10;99.90
38582;DHT22;24349;53.720;10.014;2023-09-19T14:32:17;20.10;99.90
38582;DHT22;24349;53.720;10.014;2023-09-19T14:34:43;20.10;99.90
38582;DHT22;24349;53.720;10.014;2023-09-19T14:37:10;19.80;99.90
38582;DHT22;24349;53.720;10.014;2023-09-19T14:39:37;19.80;99.90
38582;DHT22;24349;53.720;10.014;2023-09-19T14:42:04;19.70;99.90
38582;DHT22;24349;53.720;10.014;2023-09-19T14:44:30;19.70;99.90
38582;DHT22;24349;53.720;10.014;2023-09-19T14:46:55;19.60;99.90
38582;DHT22;24349;53.720;10.014;2023-09-19T14:49:21;19.50;99.90
38582;DHT22;24349;53.720;10.014;2023-09-19T14:51:47;19.40;99.90
38582;DHT22;24349;53.720;10.014;2023-09-19T14:54:14;19.40;99.90
38582;DHT22;24349;53.720;10.014;2023-09-19T14:56:42;19.30;99.90
38582;DHT22;24349;53.720;10.014;2023-09-19T14:59:08;19.20;99.90
38582;DHT22;24349;53.720;10.014;2023-09-19T15:01:36;19.20;99.90
38582;DHT22;24349;53.720;10.014;2023-09-19T15:04:01;19.30;99.90
38582;DHT22;24349;53.720;10.014;2023-09-19T15:06:27;19.30;99.90
38582;DHT22;24349;53.720;10.014;2023-09-19T15:08:53;19.20;99.90
38582;DHT22;24349;53.720;10.014;2023-09-19T15:11:19;19.20;99.90
38582;DHT22;24349;53.720;10.014;2023-09-19T15:13:46;19.20;99.90
38582;DHT22;24349;53.720;10.014;2023-09-19T15:16:12;19.10;99.90
38582;DHT22;24349;53.720;10.014;2023-09-19T15:18:43;19.10;99.90
38582;DHT22;24349;53.720;10.014;2023-09-19T15:21:11;19.00;99.90
38582;DHT22;24349;53.720;10.014;2023-09-19T15:23:38;19.10;99.90
38582;DHT22;24349;53.720;10.014;2023-09-19T15:26:07;19.10;99.90
38582;DHT22;24349;53.720;10.014;2023-09-19T15:28:34;19.00;99.90
38582;DHT22;24349;53.720;10.014;2023-09-19T15:31:01;19.00;99.90
38582;DHT22;24349;53.720;10.014;2023-09-19T15:33:27;19.00;99.90
38582;DHT22;24349;53.720;10.014;2023-09-19T15:36:01;18.90;99.90
38582;DHT22;24349;53.720;10.014;2023-09-19T15:38:27;18.90;99.90
38582;DHT22;24349;53.720;10.014;2023-09-19T15:40:53;18.80;99.90
38582;DHT22;24349;53.720;10.014;2023-09-19T15:43:19;18.90;99.90
38582;DHT22;24349;53.720;10.014;2023-09-19T15:45:46;18.80;99.90
38582;DHT22;24349;53.720;10.014;2023-09-19T15:48:13;18.70;99.90
38582;DHT22;24349;53.720;10.014;2023-09-19T15:50:39;18.70;99.90
38582;DHT22;24349;53.720;10.014;2023-09-19T15:53:07;18.70;99.90
38582;DHT22;24349;53.720;10.014;2023-09-19T15:55:39;18.70;99.90
38582;DHT22;24349;53.720;10.014;2023-09-19T15:58:06;18.70;99.90
38582;DHT22;24349;53.720;10.014;2023-09-19T16:00:34;18.70;99.90
38582;DHT22;24349;53.720;10.014;2023-09-19T16:03:01;18.70;99.90
38582;DHT22;24349;53.720;10.014;2023-09-19T16:05:28;18.70;99.90
38582;DHT22;24349;53.720;10.014;2023-09-19T16:08:03;18.70;99.90
38582;DHT22;24349;53.720;10.014;2023-09-19T16:10:29;18.70;99.90
38582;DHT22;24349;53.720;10.014;2023-09-19T16:12:55;18.70;99.90
38582;DHT22;24349;53.720;10.014;2023-09-19T16:15:20;18.70;99.90
38582;DHT22;24349;53.720;10.014;2023-09-19T16:17:46;18.70;99.90
38582;DHT22;24349;53.720;10.014;2023-09-19T16:20:12;18.70;99.90